sensor_id;sensor_type;location;lat;lon;timestamp;P1;durP1;ratioP1;P2;durP2;ratioP2
31270;SDS011;17904;47.420;9.310;2022-09-13T00:01:31;1.35;;;0.93;;
31270;SDS011;17904;47.420;9.310;2022-09-13T00:03:58;2.10;;;1.10;;
31270;SDS011;17904;47.420;9.310;2022-09-13T00:06:25;2.05;;;1.17;;
31270;SDS011;17904;47.420;9.310;2022-09-13T00:08:52;8.00;;;1.30;;
31270;SDS011;17904;47.420;9.310;2022-09-13T00:11:24;2.28;;;1.38;;
31270;SDS011;17904;47.420;9.310;2022-09-13T00:13:53;2.35;;;1.05;;
31270;SDS011;17904;47.420;9.310;2022-09-13T00:16:21;2.65;;;0.98;;
31270;SDS011;17904;47.420;9.310;2022-09-13T00:18:51;5.07;;;1.20;;
31270;SDS011;17904;47.420;9.310;2022-09-13T00:21:19;1.52;;;1.10;;
31270;SDS011;17904;47.420;9.310;2022-09-13T00:23:51;5.13;;;1.30;;
31270;SDS011;17904;47.420;9.310;2022-09-13T00:26:23;6.68;;;1.48;;
31270;SDS011;17904;47.420;9.310;2022-09-13T00:28:53;1.13;;;1.10;;
31270;SDS011;17904;47.420;9.310;2022-09-13T00:31:22;4.97;;;1.30;;
31270;SDS011;17904;47.420;9.310;2022-09-13T00:33:51;2.95;;;1.15;;
31270;SDS011;17904;47.420;9.310;2022-09-13T00:36:19;1.90;;;1.40;;
31270;SDS011;17904;47.420;9.310;2022-09-13T00:38:46;2.42;;;1.05;;
31270;SDS011;17904;47.420;9.310;2022-09-13T00:41:14;2.17;;;1.02;;
31270;SDS011;17904;47.420;9.310;2022-09-13T00:46:16;1.35;;;1.10;;
31270;SDS011;17904;47.420;9.310;2022-09-13T00:48:50;1.85;;;1.08;;
31270;SDS011;17904;47.420;9.310;2022-09-13T00:51:20;1.05;;;0.95;;
31270;SDS011;17904;47.420;9.310;2022-09-13T00:53:49;3.38;;;1.15;;
31270;SDS011;17904;47.420;9.310;2022-09-13T00:56:34;1.58;;;1.00;;
31270;SDS011;17904;47.420;9.310;2022-09-13T00:59:07;1.02;;;0.95;;
31270;SDS011;17904;47.420;9.310;2022-09-13T01:01:40;4.25;;;1.25;;
31270;SDS011;17904;47.420;9.310;2022-09-13T01:04:12;1.45;;;1.30;;
31270;SDS011;17904;47.420;9.310;2022-09-13T01:06:40;3.00;;;1.10;;
31270;SDS011;17904;47.420;9.310;2022-09-13T01:09:09;4.90;;;1.35;;
31270;SDS011;17904;47.420;9.310;2022-09-13T01:11:48;0.80;;;0.80;;
31270;SDS011;17904;47.420;9.310;2022-09-13T01:14:26;2.92;;;1.20;;
31270;SDS011;17904;47.420;9.310;2022-09-13T01:16:53;1.15;;;1.00;;
31270;SDS011;17904;47.420;9.310;2022-09-13T01:19:20;13.70;;;1.63;;
31270;SDS011;17904;47.420;9.310;2022-09-13T01:31:40;5.60;;;0.90;;
31270;SDS011;17904;47.420;9.310;2022-09-13T01:33:47;6.97;;;1.02;;
31270;SDS011;17904;47.420;9.310;2022-09-13T01:36:35;9.45;;;1.15;;
31270;SDS011;17904;47.420;9.310;2022-09-13T01:56:03;5.43;;;1.00;;
31270;SDS011;17904;47.420;9.310;2022-09-13T01:58:59;1.63;;;1.00;;
31270;SDS011;17904;47.420;9.310;2022-09-13T02:01:38;1.75;;;0.93;;
31270;SDS011;17904;47.420;9.310;2022-09-13T02:04:20;2.13;;;0.85;;
31270;SDS011;17904;47.420;9.310;2022-09-13T02:06:52;4.07;;;0.88;;
31270;SDS011;17904;47.420;9.310;2022-09-13T02:09:35;1.10;;;0.80;;
31270;SDS011;17904;47.420;9.310;2022-09-13T02:12:09;1.48;;;0.88;;
31270;SDS011;17904;47.420;9.310;2022-09-13T02:14:43;1.08;;;0.73;;
31270;SDS011;17904;47.420;9.310;2022-09-13T02:17:15;1.60;;;0.73;;
31270;SDS011;17904;47.420;9.310;2022-09-13T02:19:52;2.00;;;0.70;;
31270;SDS011;17904;47.420;9.310;2022-09-13T02:22:28;2.92;;;0.60;;
31270;SDS011;17904;47.420;9.310;2022-09-13T02:25:00;1.58;;;0.73;;
31270;SDS011;17904;47.420;9.310;2022-09-13T02:27:34;1.30;;;0.70;;
31270;SDS011;17904;47.420;9.310;2022-09-13T02:30:05;3.17;;;1.02;;
31270;SDS011;17904;47.420;9.310;2022-09-13T02:32:39;0.55;;;0.55;;
31270;SDS011;17904;47.420;9.310;2022-09-13T02:35:18;2.83;;;0.98;;
31270;SDS011;17904;47.420;9.310;2022-09-13T02:37:54;1.30;;;0.68;;
31270;SDS011;17904;47.420;9.310;2022-09-13T02:40:26;0.65;;;0.65;;
31270;SDS011;17904;47.420;9.310;2022-09-13T02:43:03;5.55;;;0.63;;
31270;SDS011;17904;47.420;9.310;2022-09-13T02:45:37;1.02;;;0.73;;
31270;SDS011;17904;47.420;9.310;2022-09-13T02:48:16;0.85;;;0.70;;
31270;SDS011;17904;47.420;9.310;2022-09-13T02:51:29;7.30;;;1.13;;
31270;SDS011;17904;47.420;9.310;2022-09-13T02:54:08;4.20;;;0.90;;
31270;SDS011;17904;47.420;9.310;2022-09-13T02:59:21;3.17;;;1.17;;
31270;SDS011;17904;47.420;9.310;2022-09-13T03:01:51;0.60;;;0.60;;
31270;SDS011;17904;47.420;9.310;2022-09-13T03:04:27;0.50;;;0.50;;
31270;SDS011;17904;47.420;9.310;2022-09-13T03:06:54;2.85;;;0.50;;
31270;SDS011;17904;47.420;9.310;2022-09-13T03:09:21;0.93;;;0.60;;
31270;SDS011;17904;47.420;9.310;2022-09-13T03:11:55;1.33;;;0.70;;
31270;SDS011;17904;47.420;9.310;2022-09-13T03:17:37;4.95;;;0.73;;
31270;SDS011;17904;47.420;9.310;2022-09-13T03:31:15;3.47;;;0.63;;
31270;SDS011;17904;47.420;9.310;2022-09-13T03:33:55;5.05;;;0.95;;
31270;SDS011;17904;47.420;9.310;2022-09-13T03:36:36;2.22;;;1.08;;
31270;SDS011;17904;47.420;9.310;2022-09-13T03:42:17;0.93;;;0.55;;
31270;SDS011;17904;47.420;9.310;2022-09-13T03:44:57;1.73;;;0.75;;
31270;SDS011;17904;47.420;9.310;2022-09-13T03:47:27;1.60;;;0.68;;
31270;SDS011;17904;47.420;9.310;2022-09-13T03:49:59;0.73;;;0.73;;
31270;SDS011;17904;47.420;9.310;2022-09-13T03:52:27;1.48;;;0.60;;
31270;SDS011;17904;47.420;9.310;2022-09-13T03:54:56;0.38;;;0.38;;
31270;SDS011;17904;47.420;9.310;2022-09-13T03:57:24;1.88;;;0.60;;
31270;SDS011;17904;47.420;9.310;2022-09-13T03:59:52;1.63;;;0.77;;
31270;SDS011;17904;47.420;9.310;2022-09-13T04:02:23;0.88;;;0.50;;
31270;SDS011;17904;47.420;9.310;2022-09-13T04:04:51;2.20;;;0.77;;
31270;SDS011;17904;47.420;9.310;2022-09-13T04:07:20;1.05;;;0.82;;
31270;SDS011;17904;47.420;9.310;2022-09-13T04:09:48;0.50;;;0.50;;
31270;SDS011;17904;47.420;9.310;2022-09-13T04:12:16;2.92;;;0.90;;
31270;SDS011;17904;47.420;9.310;2022-09-13T04:14:43;1.65;;;0.60;;
31270;SDS011;17904;47.420;9.310;2022-09-13T04:17:10;2.80;;;0.73;;
31270;SDS011;17904;47.420;9.310;2022-09-13T04:19:38;3.40;;;0.60;;
31270;SDS011;17904;47.420;9.310;2022-09-13T04:22:06;0.77;;;0.70;;
31270;SDS011;17904;47.420;9.310;2022-09-13T04:24:33;3.45;;;0.80;;
31270;SDS011;17904;47.420;9.310;2022-09-13T04:27:01;1.95;;;0.93;;
31270;SDS011;17904;47.420;9.310;2022-09-13T04:29:29;6.22;;;0.70;;
31270;SDS011;17904;47.420;9.310;2022-09-13T04:31:58;0.75;;;0.68;;
31270;SDS011;17904;47.420;9.310;2022-09-13T04:34:26;1.35;;;0.75;;
31270;SDS011;17904;47.420;9.310;2022-09-13T04:36:53;3.10;;;0.75;;
31270;SDS011;17904;47.420;9.310;2022-09-13T04:39:21;5.55;;;0.60;;
31270;SDS011;17904;47.420;9.310;2022-09-13T04:41:50;0.70;;;0.65;;
31270;SDS011;17904;47.420;9.310;2022-09-13T04:44:20;3.65;;;1.05;;
31270;SDS011;17904;47.420;9.310;2022-09-13T04:46:48;1.40;;;0.88;;
31270;SDS011;17904;47.420;9.310;2022-09-13T04:49:17;0.63;;;0.60;;
31270;SDS011;17904;47.420;9.310;2022-09-13T04:51:45;1.75;;;0.65;;
31270;SDS011;17904;47.420;9.310;2022-09-13T04:54:14;2.08;;;0.60;;
31270;SDS011;17904;47.420;9.310;2022-09-13T04:56:42;3.38;;;0.70;;
31270;SDS011;17904;47.420;9.310;2022-09-13T04:59:10;0.93;;;0.80;;
31270;SDS011;17904;47.420;9.310;2022-09-13T05:01:38;1.77;;;0.82;;
31270;SDS011;17904;47.420;9.310;2022-09-13T05:04:06;7.88;;;0.93;;
31270;SDS011;17904;47.420;9.310;2022-09-13T05:06:33;3.30;;;1.17;;
31270;SDS011;17904;47.420;9.310;2022-09-13T05:09:01;1.23;;;0.80;;
31270;SDS011;17904;47.420;9.310;2022-09-13T05:11:29;1.02;;;0.73;;
31270;SDS011;17904;47.420;9.310;2022-09-13T05:13:57;1.30;;;0.70;;
31270;SDS011;17904;47.420;9.310;2022-09-13T05:16:26;0.95;;;0.77;;
31270;SDS011;17904;47.420;9.310;2022-09-13T05:18:56;1.15;;;0.60;;
31270;SDS011;17904;47.420;9.310;2022-09-13T05:21:24;2.97;;;0.80;;
31270;SDS011;17904;47.420;9.310;2022-09-13T05:23:54;0.50;;;0.50;;
31270;SDS011;17904;47.420;9.310;2022-09-13T05:26:23;0.65;;;0.60;;
31270;SDS011;17904;47.420;9.310;2022-09-13T05:28:51;0.80;;;0.80;;
31270;SDS011;17904;47.420;9.310;2022-09-13T05:31:23;5.25;;;0.70;;
31270;SDS011;17904;47.420;9.310;2022-09-13T05:33:58;0.90;;;0.85;;
31270;SDS011;17904;47.420;9.310;2022-09-13T05:36:30;0.50;;;0.50;;
31270;SDS011;17904;47.420;9.310;2022-09-13T05:38:59;1.08;;;0.60;;
31270;SDS011;17904;47.420;9.310;2022-09-13T05:41:47;1.17;;;0.70;;
31270;SDS011;17904;47.420;9.310;2022-09-13T05:44:15;1.55;;;0.75;;
31270;SDS011;17904;47.420;9.310;2022-09-13T05:46:45;0.90;;;0.68;;
31270;SDS011;17904;47.420;9.310;2022-09-13T05:49:14;3.30;;;0.82;;
31270;SDS011;17904;47.420;9.310;2022-09-13T05:51:42;0.93;;;0.70;;
31270;SDS011;17904;47.420;9.310;2022-09-13T05:54:10;2.20;;;0.93;;
31270;SDS011;17904;47.420;9.310;2022-09-13T05:56:39;2.10;;;0.70;;
31270;SDS011;17904;47.420;9.310;2022-09-13T05:59:09;1.15;;;0.90;;
31270;SDS011;17904;47.420;9.310;2022-09-13T06:01:38;1.35;;;0.77;;
31270;SDS011;17904;47.420;9.310;2022-09-13T06:04:05;1.65;;;1.08;;
31270;SDS011;17904;47.420;9.310;2022-09-13T06:06:33;1.05;;;0.80;;
31270;SDS011;17904;47.420;9.310;2022-09-13T06:09:01;1.95;;;1.00;;
31270;SDS011;17904;47.420;9.310;2022-09-13T06:11:29;1.58;;;0.65;;
31270;SDS011;17904;47.420;9.310;2022-09-13T06:13:59;1.77;;;0.98;;
31270;SDS011;17904;47.420;9.310;2022-09-13T06:16:26;2.60;;;0.85;;
31270;SDS011;17904;47.420;9.310;2022-09-13T06:18:53;2.85;;;0.93;;
31270;SDS011;17904;47.420;9.310;2022-09-13T06:21:21;1.85;;;0.68;;
31270;SDS011;17904;47.420;9.310;2022-09-13T06:23:54;4.07;;;1.15;;
31270;SDS011;17904;47.420;9.310;2022-09-13T06:26:23;3.00;;;0.77;;
31270;SDS011;17904;47.420;9.310;2022-09-13T06:28:53;1.73;;;0.70;;
31270;SDS011;17904;47.420;9.310;2022-09-13T06:31:23;2.33;;;0.80;;
31270;SDS011;17904;47.420;9.310;2022-09-13T06:33:58;2.58;;;0.73;;
31270;SDS011;17904;47.420;9.310;2022-09-13T06:36:29;2.47;;;0.90;;
31270;SDS011;17904;47.420;9.310;2022-09-13T06:38:57;2.67;;;0.90;;
31270;SDS011;17904;47.420;9.310;2022-09-13T06:41:26;0.82;;;0.77;;
31270;SDS011;17904;47.420;9.310;2022-09-13T06:43:54;2.13;;;1.17;;
31270;SDS011;17904;47.420;9.310;2022-09-13T06:46:28;0.88;;;0.80;;
31270;SDS011;17904;47.420;9.310;2022-09-13T06:49:00;4.15;;;0.85;;
31270;SDS011;17904;47.420;9.310;2022-09-13T06:51:29;2.17;;;0.85;;
31270;SDS011;17904;47.420;9.310;2022-09-13T06:53:57;1.52;;;0.70;;
31270;SDS011;17904;47.420;9.310;2022-09-13T06:56:26;1.10;;;0.90;;
31270;SDS011;17904;47.420;9.310;2022-09-13T06:58:57;1.08;;;0.98;;
31270;SDS011;17904;47.420;9.310;2022-09-13T07:01:27;1.85;;;1.05;;
31270;SDS011;17904;47.420;9.310;2022-09-13T07:03:57;4.05;;;0.60;;
31270;SDS011;17904;47.420;9.310;2022-09-13T07:06:30;1.55;;;0.73;;
31270;SDS011;17904;47.420;9.310;2022-09-13T07:09:02;0.80;;;0.65;;
31270;SDS011;17904;47.420;9.310;2022-09-13T07:11:35;2.78;;;0.85;;
31270;SDS011;17904;47.420;9.310;2022-09-13T07:14:04;0.80;;;0.80;;
31270;SDS011;17904;47.420;9.310;2022-09-13T07:16:32;1.08;;;0.68;;
31270;SDS011;17904;47.420;9.310;2022-09-13T07:19:04;0.70;;;0.68;;
31270;SDS011;17904;47.420;9.310;2022-09-13T07:21:33;3.15;;;1.23;;
31270;SDS011;17904;47.420;9.310;2022-09-13T07:24:01;1.63;;;0.47;;
31270;SDS011;17904;47.420;9.310;2022-09-13T07:26:29;1.48;;;0.70;;
31270;SDS011;17904;47.420;9.310;2022-09-13T07:28:58;1.10;;;0.68;;
31270;SDS011;17904;47.420;9.310;2022-09-13T07:31:30;2.65;;;0.80;;
31270;SDS011;17904;47.420;9.310;2022-09-13T07:34:00;4.80;;;0.80;;
31270;SDS011;17904;47.420;9.310;2022-09-13T07:36:34;2.60;;;0.93;;
31270;SDS011;17904;47.420;9.310;2022-09-13T07:39:02;2.25;;;0.90;;
31270;SDS011;17904;47.420;9.310;2022-09-13T07:41:31;5.00;;;1.17;;
31270;SDS011;17904;47.420;9.310;2022-09-13T07:43:59;1.08;;;0.75;;
31270;SDS011;17904;47.420;9.310;2022-09-13T07:46:28;6.65;;;0.90;;
31270;SDS011;17904;47.420;9.310;2022-09-13T07:48:58;5.10;;;1.77;;
31270;SDS011;17904;47.420;9.310;2022-09-13T07:51:29;0.75;;;0.68;;
31270;SDS011;17904;47.420;9.310;2022-09-13T07:53:59;1.25;;;0.60;;
31270;SDS011;17904;47.420;9.310;2022-09-13T07:56:28;2.65;;;0.57;;
31270;SDS011;17904;47.420;9.310;2022-09-13T07:58:58;3.88;;;0.80;;
31270;SDS011;17904;47.420;9.310;2022-09-13T08:01:27;2.38;;;0.70;;
31270;SDS011;17904;47.420;9.310;2022-09-13T08:04:02;2.15;;;0.70;;
31270;SDS011;17904;47.420;9.310;2022-09-13T08:06:32;2.03;;;0.88;;
31270;SDS011;17904;47.420;9.310;2022-09-13T08:09:00;6.32;;;0.73;;
31270;SDS011;17904;47.420;9.310;2022-09-13T08:11:29;1.48;;;0.95;;
31270;SDS011;17904;47.420;9.310;2022-09-13T08:14:02;1.83;;;0.70;;
31270;SDS011;17904;47.420;9.310;2022-09-13T08:16:30;2.97;;;0.95;;
31270;SDS011;17904;47.420;9.310;2022-09-13T08:18:59;2.63;;;0.90;;
31270;SDS011;17904;47.420;9.310;2022-09-13T08:21:33;2.90;;;0.70;;
31270;SDS011;17904;47.420;9.310;2022-09-13T08:24:05;3.27;;;0.90;;
31270;SDS011;17904;47.420;9.310;2022-09-13T08:26:34;3.15;;;0.47;;
31270;SDS011;17904;47.420;9.310;2022-09-13T08:29:03;1.00;;;0.60;;
31270;SDS011;17904;47.420;9.310;2022-09-13T08:31:32;3.47;;;0.50;;
31270;SDS011;17904;47.420;9.310;2022-09-13T08:34:00;3.13;;;0.70;;
31270;SDS011;17904;47.420;9.310;2022-09-13T08:36:28;1.90;;;0.70;;
31270;SDS011;17904;47.420;9.310;2022-09-13T08:38:56;2.33;;;0.77;;
31270;SDS011;17904;47.420;9.310;2022-09-13T08:44:17;4.70;;;0.93;;
31270;SDS011;17904;47.420;9.310;2022-09-13T08:46:49;3.60;;;0.70;;
31270;SDS011;17904;47.420;9.310;2022-09-13T08:49:25;2.60;;;0.57;;
31270;SDS011;17904;47.420;9.310;2022-09-13T08:51:58;1.40;;;0.60;;
31270;SDS011;17904;47.420;9.310;2022-09-13T08:54:48;6.32;;;0.82;;
31270;SDS011;17904;47.420;9.310;2022-09-13T09:02:49;3.33;;;0.95;;
31270;SDS011;17904;47.420;9.310;2022-09-13T09:05:47;2.17;;;0.80;;
31270;SDS011;17904;47.420;9.310;2022-09-13T09:08:50;2.70;;;0.77;;
31270;SDS011;17904;47.420;9.310;2022-09-13T09:11:20;4.43;;;0.80;;
31270;SDS011;17904;47.420;9.310;2022-09-13T09:16:38;3.53;;;1.10;;
31270;SDS011;17904;47.420;9.310;2022-09-13T09:19:16;5.00;;;1.50;;
31270;SDS011;17904;47.420;9.310;2022-09-13T09:21:51;5.55;;;1.50;;
31270;SDS011;17904;47.420;9.310;2022-09-13T09:24:22;4.38;;;1.60;;
31270;SDS011;17904;47.420;9.310;2022-09-13T09:26:54;4.80;;;1.20;;
31270;SDS011;17904;47.420;9.310;2022-09-13T09:29:24;3.13;;;1.40;;
31270;SDS011;17904;47.420;9.310;2022-09-13T09:37:41;2.75;;;1.20;;
31270;SDS011;17904;47.420;9.310;2022-09-13T09:40:16;7.00;;;1.73;;
31270;SDS011;17904;47.420;9.310;2022-09-13T09:42:47;2.80;;;1.20;;
31270;SDS011;17904;47.420;9.310;2022-09-13T09:45:23;9.75;;;2.10;;
31270;SDS011;17904;47.420;9.310;2022-09-13T09:47:53;8.52;;;1.40;;
31270;SDS011;17904;47.420;9.310;2022-09-13T09:50:26;2.97;;;1.30;;
31270;SDS011;17904;47.420;9.310;2022-09-13T09:53:21;6.75;;;1.90;;
31270;SDS011;17904;47.420;9.310;2022-09-13T09:55:59;8.55;;;2.13;;
31270;SDS011;17904;47.420;9.310;2022-09-13T09:58:38;12.15;;;2.13;;
31270;SDS011;17904;47.420;9.310;2022-09-13T10:01:31;5.15;;;2.05;;
31270;SDS011;17904;47.420;9.310;2022-09-13T10:06:42;6.95;;;1.92;;
31270;SDS011;17904;47.420;9.310;2022-09-13T10:09:14;5.93;;;2.00;;
31270;SDS011;17904;47.420;9.310;2022-09-13T10:11:45;7.47;;;2.55;;
31270;SDS011;17904;47.420;9.310;2022-09-13T10:17:04;6.28;;;1.73;;
31270;SDS011;17904;47.420;9.310;2022-09-13T10:22:37;4.30;;;2.05;;
31270;SDS011;17904;47.420;9.310;2022-09-13T10:25:14;4.68;;;2.10;;
31270;SDS011;17904;47.420;9.310;2022-09-13T10:27:54;11.85;;;2.45;;
31270;SDS011;17904;47.420;9.310;2022-09-13T10:30:34;8.32;;;2.08;;
31270;SDS011;17904;47.420;9.310;2022-09-13T10:33:30;2.03;;;1.93;;
31270;SDS011;17904;47.420;9.310;2022-09-13T10:36:05;3.88;;;2.28;;
31270;SDS011;17904;47.420;9.310;2022-09-13T10:39:02;1.67;;;1.48;;
31270;SDS011;17904;47.420;9.310;2022-09-13T10:41:32;4.47;;;2.13;;
31270;SDS011;17904;47.420;9.310;2022-09-13T10:44:05;4.10;;;2.40;;
31270;SDS011;17904;47.420;9.310;2022-09-13T10:46:46;6.35;;;2.05;;
31270;SDS011;17904;47.420;9.310;2022-09-13T10:49:33;3.30;;;2.22;;
31270;SDS011;17904;47.420;9.310;2022-09-13T10:52:22;10.20;;;2.20;;
31270;SDS011;17904;47.420;9.310;2022-09-13T10:54:52;1.90;;;1.80;;
31270;SDS011;17904;47.420;9.310;2022-09-13T10:57:26;4.63;;;1.88;;
31270;SDS011;17904;47.420;9.310;2022-09-13T11:00:00;2.78;;;1.58;;
31270;SDS011;17904;47.420;9.310;2022-09-13T11:10:42;2.97;;;2.00;;
31270;SDS011;17904;47.420;9.310;2022-09-13T11:13:15;2.67;;;1.45;;
31270;SDS011;17904;47.420;9.310;2022-09-13T11:16:18;6.35;;;2.03;;
31270;SDS011;17904;47.420;9.310;2022-09-13T11:19:04;1.63;;;1.30;;
31270;SDS011;17904;47.420;9.310;2022-09-13T11:21:57;4.72;;;1.50;;
31270;SDS011;17904;47.420;9.310;2022-09-13T11:27:37;4.05;;;1.60;;
31270;SDS011;17904;47.420;9.310;2022-09-13T11:30:15;1.98;;;1.60;;
31270;SDS011;17904;47.420;9.310;2022-09-13T11:46:35;2.63;;;0.80;;
31270;SDS011;17904;47.420;9.310;2022-09-13T11:57:26;2.90;;;1.42;;
31270;SDS011;17904;47.420;9.310;2022-09-13T11:59:59;4.47;;;1.17;;
31270;SDS011;17904;47.420;9.310;2022-09-13T12:02:48;3.20;;;1.20;;
31270;SDS011;17904;47.420;9.310;2022-09-13T12:05:25;5.57;;;1.02;;
31270;SDS011;17904;47.420;9.310;2022-09-13T12:08:04;2.72;;;0.95;;
31270;SDS011;17904;47.420;9.310;2022-09-13T12:10:47;4.30;;;1.30;;
31270;SDS011;17904;47.420;9.310;2022-09-13T12:13:21;7.47;;;1.40;;
31270;SDS011;17904;47.420;9.310;2022-09-13T12:15:59;2.47;;;0.90;;
31270;SDS011;17904;47.420;9.310;2022-09-13T12:21:47;2.25;;;1.35;;
31270;SDS011;17904;47.420;9.310;2022-09-13T12:24:27;4.47;;;1.38;;
31270;SDS011;17904;47.420;9.310;2022-09-13T12:32:39;4.50;;;1.08;;
31270;SDS011;17904;47.420;9.310;2022-09-13T12:52:48;7.68;;;1.20;;
31270;SDS011;17904;47.420;9.310;2022-09-13T12:55:57;5.30;;;1.10;;
31270;SDS011;17904;47.420;9.310;2022-09-13T13:01:50;2.08;;;1.10;;
31270;SDS011;17904;47.420;9.310;2022-09-13T13:04:25;2.78;;;1.00;;
31270;SDS011;17904;47.420;9.310;2022-09-13T13:06:59;2.33;;;0.68;;
31270;SDS011;17904;47.420;9.310;2022-09-13T13:09:35;2.15;;;0.77;;
31270;SDS011;17904;47.420;9.310;2022-09-13T13:12:11;4.68;;;0.82;;
31270;SDS011;17904;47.420;9.310;2022-09-13T13:14:52;6.43;;;1.30;;
31270;SDS011;17904;47.420;9.310;2022-09-13T13:26:00;3.33;;;0.90;;
31270;SDS011;17904;47.420;9.310;2022-09-13T13:33:50;0.70;;;0.70;;
31270;SDS011;17904;47.420;9.310;2022-09-13T13:36:26;1.48;;;0.70;;
31270;SDS011;17904;47.420;9.310;2022-09-13T13:38:58;2.67;;;0.98;;
31270;SDS011;17904;47.420;9.310;2022-09-13T13:43:59;0.90;;;0.52;;
31270;SDS011;17904;47.420;9.310;2022-09-13T13:46:30;4.05;;;1.15;;
31270;SDS011;17904;47.420;9.310;2022-09-13T14:08:25;3.30;;;0.82;;
31270;SDS011;17904;47.420;9.310;2022-09-13T14:24:53;2.65;;;1.10;;
31270;SDS011;17904;47.420;9.310;2022-09-13T14:27:34;0.60;;;0.60;;
31270;SDS011;17904;47.420;9.310;2022-09-13T14:30:04;2.65;;;0.85;;
31270;SDS011;17904;47.420;9.310;2022-09-13T14:32:45;3.47;;;0.80;;
31270;SDS011;17904;47.420;9.310;2022-09-13T14:35:25;3.15;;;0.75;;
31270;SDS011;17904;47.420;9.310;2022-09-13T14:40:37;2.10;;;0.80;;
31270;SDS011;17904;47.420;9.310;2022-09-13T14:43:20;7.75;;;1.30;;
31270;SDS011;17904;47.420;9.310;2022-09-13T14:45:49;6.70;;;1.00;;
31270;SDS011;17904;47.420;9.310;2022-09-13T14:48:31;2.05;;;0.90;;
31270;SDS011;17904;47.420;9.310;2022-09-13T14:53:38;2.50;;;1.20;;
31270;SDS011;17904;47.420;9.310;2022-09-13T14:56:13;3.20;;;1.42;;
31270;SDS011;17904;47.420;9.310;2022-09-13T14:58:48;2.30;;;1.58;;
31270;SDS011;17904;47.420;9.310;2022-09-13T15:01:20;2.38;;;1.35;;
31270;SDS011;17904;47.420;9.310;2022-09-13T15:03:53;1.75;;;1.52;;
31270;SDS011;17904;47.420;9.310;2022-09-13T15:06:30;3.33;;;1.40;;
31270;SDS011;17904;47.420;9.310;2022-09-13T15:11:54;2.30;;;1.63;;
31270;SDS011;17904;47.420;9.310;2022-09-13T15:14:27;2.53;;;1.50;;
31270;SDS011;17904;47.420;9.310;2022-09-13T15:16:59;5.90;;;1.00;;
31270;SDS011;17904;47.420;9.310;2022-09-13T15:19:36;3.35;;;0.93;;
31270;SDS011;17904;47.420;9.310;2022-09-13T15:24:44;6.85;;;1.00;;
31270;SDS011;17904;47.420;9.310;2022-09-13T15:27:21;3.22;;;0.77;;
31270;SDS011;17904;47.420;9.310;2022-09-13T15:29:59;1.30;;;0.63;;
31270;SDS011;17904;47.420;9.310;2022-09-13T15:34:58;1.77;;;1.10;;
31270;SDS011;17904;47.420;9.310;2022-09-13T15:37:28;3.70;;;0.95;;
31270;SDS011;17904;47.420;9.310;2022-09-13T15:40:04;6.22;;;1.00;;
31270;SDS011;17904;47.420;9.310;2022-09-13T15:42:38;4.97;;;0.98;;
31270;SDS011;17904;47.420;9.310;2022-09-13T15:45:05;5.78;;;1.02;;
31270;SDS011;17904;47.420;9.310;2022-09-13T15:47:32;1.85;;;1.10;;
31270;SDS011;17904;47.420;9.310;2022-09-13T15:49:59;7.00;;;0.90;;
31270;SDS011;17904;47.420;9.310;2022-09-13T15:52:27;1.50;;;1.00;;
31270;SDS011;17904;47.420;9.310;2022-09-13T15:54:55;3.17;;;1.13;;
31270;SDS011;17904;47.420;9.310;2022-09-13T15:57:22;1.60;;;0.82;;
31270;SDS011;17904;47.420;9.310;2022-09-13T15:59:51;1.00;;;0.75;;
31270;SDS011;17904;47.420;9.310;2022-09-13T16:02:20;6.00;;;1.00;;
31270;SDS011;17904;47.420;9.310;2022-09-13T16:04:50;2.05;;;1.00;;
31270;SDS011;17904;47.420;9.310;2022-09-13T16:07:18;3.40;;;1.33;;
31270;SDS011;17904;47.420;9.310;2022-09-13T16:09:46;1.10;;;1.00;;
31270;SDS011;17904;47.420;9.310;2022-09-13T16:12:14;2.50;;;1.00;;
31270;SDS011;17904;47.420;9.310;2022-09-13T16:14:41;11.00;;;1.27;;
31270;SDS011;17904;47.420;9.310;2022-09-13T16:17:16;8.07;;;1.30;;
31270;SDS011;17904;47.420;9.310;2022-09-13T16:19:46;3.97;;;1.38;;
31270;SDS011;17904;47.420;9.310;2022-09-13T16:22:14;4.65;;;1.70;;
31270;SDS011;17904;47.420;9.310;2022-09-13T16:24:42;1.90;;;1.25;;
31270;SDS011;17904;47.420;9.310;2022-09-13T16:27:11;4.07;;;1.30;;
31270;SDS011;17904;47.420;9.310;2022-09-13T16:29:39;8.77;;;1.58;;
31270;SDS011;17904;47.420;9.310;2022-09-13T16:32:06;4.28;;;1.45;;
31270;SDS011;17904;47.420;9.310;2022-09-13T16:34:34;3.67;;;1.27;;
31270;SDS011;17904;47.420;9.310;2022-09-13T16:37:01;1.95;;;1.48;;
31270;SDS011;17904;47.420;9.310;2022-09-13T16:39:28;7.55;;;1.27;;
31270;SDS011;17904;47.420;9.310;2022-09-13T16:41:55;2.42;;;1.25;;
31270;SDS011;17904;47.420;9.310;2022-09-13T16:44:22;4.43;;;1.00;;
31270;SDS011;17904;47.420;9.310;2022-09-13T16:46:49;3.63;;;1.45;;
31270;SDS011;17904;47.420;9.310;2022-09-13T16:49:16;13.18;;;1.20;;
31270;SDS011;17904;47.420;9.310;2022-09-13T16:51:43;1.90;;;0.90;;
31270;SDS011;17904;47.420;9.310;2022-09-13T16:54:11;4.38;;;0.98;;
31270;SDS011;17904;47.420;9.310;2022-09-13T16:56:38;3.50;;;1.10;;
31270;SDS011;17904;47.420;9.310;2022-09-13T16:59:05;9.80;;;1.67;;
31270;SDS011;17904;47.420;9.310;2022-09-13T17:01:32;8.98;;;1.50;;
31270;SDS011;17904;47.420;9.310;2022-09-13T17:03:59;3.50;;;1.40;;
31270;SDS011;17904;47.420;9.310;2022-09-13T17:06:27;4.28;;;1.40;;
31270;SDS011;17904;47.420;9.310;2022-09-13T17:08:55;2.78;;;1.50;;
31270;SDS011;17904;47.420;9.310;2022-09-13T17:11:29;5.60;;;1.48;;
31270;SDS011;17904;47.420;9.310;2022-09-13T17:13:58;4.38;;;1.65;;
31270;SDS011;17904;47.420;9.310;2022-09-13T17:16:31;4.40;;;1.55;;
31270;SDS011;17904;47.420;9.310;2022-09-13T17:19:04;5.30;;;1.63;;
31270;SDS011;17904;47.420;9.310;2022-09-13T17:21:39;3.42;;;1.55;;
31270;SDS011;17904;47.420;9.310;2022-09-13T17:24:06;5.53;;;1.75;;
31270;SDS011;17904;47.420;9.310;2022-09-13T17:26:39;8.13;;;1.42;;
31270;SDS011;17904;47.420;9.310;2022-09-13T17:29:07;3.30;;;1.40;;
31270;SDS011;17904;47.420;9.310;2022-09-13T17:31:37;7.13;;;1.17;;
31270;SDS011;17904;47.420;9.310;2022-09-13T17:34:05;2.30;;;1.25;;
31270;SDS011;17904;47.420;9.310;2022-09-13T17:36:32;5.68;;;1.27;;
31270;SDS011;17904;47.420;9.310;2022-09-13T17:38:59;7.70;;;1.60;;
31270;SDS011;17904;47.420;9.310;2022-09-13T17:41:26;1.73;;;1.40;;
31270;SDS011;17904;47.420;9.310;2022-09-13T17:43:53;8.98;;;1.77;;
31270;SDS011;17904;47.420;9.310;2022-09-13T17:46:21;7.03;;;1.80;;
31270;SDS011;17904;47.420;9.310;2022-09-13T17:48:51;14.10;;;1.65;;
31270;SDS011;17904;47.420;9.310;2022-09-13T17:51:20;11.18;;;1.95;;
31270;SDS011;17904;47.420;9.310;2022-09-13T17:53:49;6.38;;;1.88;;
31270;SDS011;17904;47.420;9.310;2022-09-13T17:56:18;6.65;;;1.77;;
31270;SDS011;17904;47.420;9.310;2022-09-13T17:58:55;4.65;;;2.03;;
31270;SDS011;17904;47.420;9.310;2022-09-13T18:01:35;6.28;;;1.98;;
31270;SDS011;17904;47.420;9.310;2022-09-13T18:04:07;2.28;;;1.83;;
31270;SDS011;17904;47.420;9.310;2022-09-13T18:06:34;6.78;;;1.95;;
31270;SDS011;17904;47.420;9.310;2022-09-13T18:09:02;3.55;;;1.98;;
31270;SDS011;17904;47.420;9.310;2022-09-13T18:11:29;3.35;;;1.73;;
31270;SDS011;17904;47.420;9.310;2022-09-13T18:13:56;10.60;;;1.90;;
31270;SDS011;17904;47.420;9.310;2022-09-13T18:16:24;6.47;;;2.28;;
31270;SDS011;17904;47.420;9.310;2022-09-13T18:18:52;3.28;;;1.90;;
31270;SDS011;17904;47.420;9.310;2022-09-13T18:21:21;6.45;;;1.90;;
31270;SDS011;17904;47.420;9.310;2022-09-13T18:23:51;5.65;;;1.80;;
31270;SDS011;17904;47.420;9.310;2022-09-13T18:26:24;8.57;;;1.80;;
31270;SDS011;17904;47.420;9.310;2022-09-13T18:28:56;7.88;;;1.75;;
31270;SDS011;17904;47.420;9.310;2022-09-13T18:31:27;6.75;;;2.35;;
31270;SDS011;17904;47.420;9.310;2022-09-13T18:33:57;4.80;;;1.63;;
31270;SDS011;17904;47.420;9.310;2022-09-13T18:36:26;2.88;;;1.52;;
31270;SDS011;17904;47.420;9.310;2022-09-13T18:38:55;4.72;;;1.95;;